Time;durP1;ratioP1;P1;durP2;ratioP2;P2;SDS_P1;SDS_P2;PMS_P1;PMS_P2;Temp;Humidity;BMP_temperature;BMP_pressure;BME280_temperature;BME280_humidity;BME280_pressure;Samples;Min_cycle;Max_cycle;Signal;HPM_P1;HPM_P2
2021/08/24 00:00:35;;;;;;;7.53;6.73;;;;;;;15.24;100.00;98843.56;5074422;28;20216;-62
2021/08/24 00:03:02;;;;;;;7.70;7.00;;;;;;;15.23;100.00;98836.53;5074280;28;20216;-62
2021/08/24 00:05:31;;;;;;;7.20;6.47;;;;;;;15.22;100.00;98840.19;5074280;28;20249;-62
2021/08/24 00:07:58;;;;;;;6.40;5.80;;;;;;;15.23;100.00;98849.84;5074264;28;20214;-63
2021/08/24 00:10:25;;;;;;;5.87;5.33;;;;;;;15.22;100.00;98841.00;5074054;28;20220;-62
2021/08/24 00:12:52;;;;;;;6.20;5.60;;;;;;;15.28;100.00;98845.03;5074203;28;20218;-62
2021/08/24 00:15:21;;;;;;;5.80;5.23;;;;;;;15.35;100.00;98846.28;5073973;28;20211;-62
2021/08/24 00:17:47;;;;;;;5.27;4.77;;;;;;;15.28;100.00;98851.19;5072350;28;20240;-63
2021/08/24 00:20:14;;;;;;;6.57;5.03;;;;;;;15.25;100.00;98847.91;5074114;28;20210;-62
2021/08/24 00:22:42;;;;;;;5.17;4.67;;;;;;;15.28;100.00;98847.69;5074078;28;20223;-62
2021/08/24 00:25:11;;;;;;;4.23;3.83;;;;;;;15.34;100.00;98852.59;5074015;28;20206;-62
2021/08/24 00:27:38;;;;;;;4.77;4.17;;;;;;;15.27;100.00;98849.50;5073643;28;20218;-62
2021/08/24 00:30:06;;;;;;;4.90;3.83;;;;;;;15.21;100.00;98843.81;5073478;28;20214;-63
2021/08/24 00:32:35;;;;;;;4.50;4.10;;;;;;;15.07;100.00;98851.97;5072986;28;20222;-62
2021/08/24 00:35:01;;;;;;;4.47;4.07;;;;;;;15.05;100.00;98844.13;5073443;28;20242;-62
2021/08/24 00:37:28;;;;;;;4.20;3.80;;;;;;;15.08;100.00;98843.00;5073591;28;20230;-62
2021/08/24 00:39:54;;;;;;;3.83;3.50;;;;;;;15.10;100.00;98849.09;5073383;28;20214;-62
2021/08/24 00:42:21;;;;;;;4.67;3.47;;;;;;;15.06;100.00;98855.59;5071605;28;20216;-62
2021/08/24 00:44:49;;;;;;;4.43;3.87;;;;;;;14.96;100.00;98850.13;5073620;28;20581;-62
2021/08/24 00:47:18;;;;;;;4.17;3.77;;;;;;;14.86;100.00;98848.28;5073459;28;20232;-62
2021/08/24 00:49:47;;;;;;;4.87;3.83;;;;;;;14.75;100.00;98846.44;5073419;28;20629;-63
2021/08/24 00:52:16;;;;;;;6.00;3.93;;;;;;;14.73;100.00;98850.16;5073229;28;20208;-63
2021/08/24 00:54:44;;;;;;;5.50;3.10;;;;;;;14.82;100.00;98846.81;5073557;28;20208;-63
2021/08/24 00:57:13;;;;;;;3.77;3.13;;;;;;;14.80;100.00;98844.25;5073117;28;20239;-62
2021/08/24 00:59:40;;;;;;;4.03;3.63;;;;;;;14.75;100.00;98837.59;5072393;28;20219;-63
2021/08/24 01:02:07;;;;;;;3.73;3.20;;;;;;;14.73;100.00;98843.00;5057284;28;20218;-62
2021/08/24 01:04:35;;;;;;;3.57;3.27;;;;;;;14.71;100.00;98838.78;5069302;28;20225;-62
2021/08/24 01:07:07;;;;;;;3.77;3.37;;;;;;;14.62;100.00;98852.78;5060623;28;20216;-63
2021/08/24 01:09:46;;;;;;;3.53;3.17;;;;;;;14.51;100.00;98842.94;5059492;28;20211;-63
2021/08/24 01:12:23;;;;;;;3.47;3.07;;;;;;;14.43;100.00;98839.97;5070987;28;20243;-63
2021/08/24 01:15:03;;;;;;;4.03;3.23;;;;;;;14.51;100.00;98847.38;5073254;28;20585;-62
2021/08/24 01:17:38;;;;;;;5.67;3.33;;;;;;;14.41;100.00;98846.34;5073118;28;20233;-63
2021/08/24 01:20:54;;;;;;;4.63;2.60;;;;;;;14.39;100.00;98848.28;5072851;28;20674;-63
2021/08/24 01:23:53;;;;;;;3.40;2.70;;;;;;;14.38;100.00;98843.94;5073116;28;20684;-63
2021/08/24 01:26:29;;;;;;;4.93;3.43;;;;;;;14.26;100.00;98845.69;5073075;28;20593;-63
2021/08/24 01:29:18;;;;;;;3.73;3.20;;;;;;;14.13;100.00;98841.34;5072716;28;20216;-63
2021/08/24 01:32:06;;;;;;;4.37;3.40;;;;;;;13.98;100.00;98842.41;5073106;28;20209;-63
2021/08/24 01:34:51;;;;;;;4.27;3.57;;;;;;;13.94;100.00;98843.63;5070980;28;20294;-63
2021/08/24 01:37:25;;;;;;;3.83;3.43;;;;;;;13.80;100.00;98838.41;5072944;28;20231;-63
2021/08/24 01:39:59;;;;;;;4.40;4.00;;;;;;;13.70;100.00;98843.53;5073080;28;20216;-63
2021/08/24 01:42:31;;;;;;;4.73;4.10;;;;;;;13.58;100.00;98840.91;5073016;28;20217;-63
2021/08/24 01:45:05;;;;;;;4.67;4.27;;;;;;;13.54;100.00;98848.25;5076242;28;20587;-63
2021/08/24 01:47:42;;;;;;;5.60;4.13;;;;;;;13.50;100.00;98845.91;5076644;28;20205;-63
2021/08/24 01:50:12;;;;;;;4.80;4.30;;;;;;;13.48;100.00;98842.50;5076965;28;20203;-63
2021/08/24 01:52:45;;;;;;;5.67;5.13;;;;;;;13.43;100.00;98841.94;5076819;28;20218;-63
2021/08/24 01:55:17;;;;;;;6.20;5.60;;;;;;;13.39;100.00;98843.13;5076439;28;20223;-63
2021/08/24 01:57:50;;;;;;;6.33;5.73;;;;;;;13.32;100.00;98837.41;5076724;28;20243;-63
2021/08/24 02:00:18;;;;;;;6.43;5.30;;;;;;;13.28;100.00;98835.06;5075281;28;20218;-63
2021/08/24 02:02:49;;;;;;;6.30;5.43;;;;;;;13.23;100.00;98842.50;5076598;28;20571;-63
2021/08/24 02:05:20;;;;;;;6.67;6.00;;;;;;;13.26;100.00;98842.28;5076241;28;20219;-62
2021/08/24 02:07:52;;;;;;;6.30;5.47;;;;;;;13.14;100.00;98837.81;5076223;28;20216;-62
2021/08/24 02:10:21;;;;;;;7.37;6.07;;;;;;;13.12;100.00;98845.00;5076316;28;20214;-63
2021/08/24 02:12:51;;;;;;;5.93;5.37;;;;;;;13.06;100.00;98840.13;5076430;28;20582;-63
2021/08/24 02:15:22;;;;;;;6.83;6.13;;;;;;;13.05;100.00;98838.44;5076399;28;20230;-62
2021/08/24 02:17:49;;;;;;;6.20;5.53;;;;;;;13.04;100.00;98836.75;5076208;28;20243;-62
2021/08/24 02:20:20;;;;;;;6.03;5.37;;;;;;;12.96;100.00;98844.38;5076391;28;20207;-62
2021/08/24 02:22:51;;;;;;;7.60;6.20;;;;;;;12.89;100.00;98843.06;5076075;28;20207;-63
2021/08/24 02:25:23;;;;;;;6.93;6.23;;;;;;;12.91;100.00;98846.44;5075958;28;20717;-63
2021/08/24 02:27:54;;;;;;;7.30;6.53;;;;;;;12.87;100.00;98844.94;5074590;28;20214;-63
2021/08/24 02:30:21;;;;;;;8.30;6.77;;;;;;;12.87;100.00;98839.63;5076165;28;20258;-62
2021/08/24 02:32:50;;;;;;;7.07;6.37;;;;;;;12.86;100.00;98841.47;5076065;28;20207;-62
2021/08/24 02:35:24;;;;;;;7.07;6.37;;;;;;;12.87;100.00;98834.34;5075847;28;20243;-63
2021/08/24 02:37:56;;;;;;;7.50;6.70;;;;;;;12.83;100.00;98841.66;5076055;28;20326;-63
2021/08/24 02:40:31;;;;;;;6.80;6.10;;;;;;;12.80;100.00;98839.22;5076001;28;20207;-62
2021/08/24 02:43:08;;;;;;;6.90;6.20;;;;;;;12.78;100.00;98837.63;5075913;28;20224;-63
2021/08/24 02:45:41;;;;;;;6.93;6.23;;;;;;;12.75;100.00;98830.72;5075916;28;20211;-62
2021/08/24 02:48:11;;;;;;;7.47;6.23;;;;;;;12.73;100.00;98834.41;5075878;28;20590;-63
2021/08/24 02:50:40;;;;;;;7.67;6.10;;;;;;;12.71;100.00;98833.69;5075870;28;20563;-62
2021/08/24 02:53:08;;;;;;;7.93;6.53;;;;;;;12.64;100.00;98837.66;5073844;28;20211;-62
2021/08/24 02:55:34;;;;;;;7.97;6.83;;;;;;;12.61;100.00;98828.13;5075207;28;20218;-63
2021/08/24 02:58:01;;;;;;;8.43;6.87;;;;;;;12.64;100.00;98827.06;5075375;28;20228;-63
2021/08/24 03:00:27;;;;;;;8.43;6.57;;;;;;;12.60;100.00;98836.19;5075651;28;20204;-62
2021/08/24 03:02:54;;;;;;;7.47;6.63;;;;;;;12.64;100.00;98835.00;5075645;28;20209;-63
2021/08/24 03:05:21;;;;;;;7.20;6.50;;;;;;;12.59;100.00;98826.53;5075311;28;20211;-62
2021/08/24 03:07:48;;;;;;;7.10;6.40;;;;;;;12.52;100.00;98831.38;5075319;28;20207;-63
2021/08/24 03:10:22;;;;;;;7.77;7.03;;;;;;;12.51;100.00;98828.81;5075434;28;20214;-63
2021/08/24 03:12:58;;;;;;;8.43;7.07;;;;;;;12.52;100.00;98833.16;5075139;28;20214;-62
2021/08/24 03:15:28;;;;;;;8.13;6.43;;;;;;;12.49;100.00;98834.25;5075236;28;20215;-63
2021/08/24 03:17:59;;;;;;;9.37;7.17;;;;;;;12.48;100.00;98831.69;5074892;28;20719;-63
2021/08/24 03:20:31;;;;;;;7.93;7.13;;;;;;;12.49;100.00;98828.94;5073886;28;20218;-63
2021/08/24 03:23:00;;;;;;;8.20;7.33;;;;;;;12.48;100.00;98831.69;5075231;28;20212;-62
2021/08/24 03:25:28;;;;;;;8.23;6.80;;;;;;;12.44;100.00;98836.34;5075171;28;20208;-63
2021/08/24 03:27:55;;;;;;;9.53;7.30;;;;;;;12.44;100.00;98830.19;5074684;28;20695;-62
2021/08/24 03:30:23;;;;;;;9.33;7.50;;;;;;;12.42;100.00;98830.28;5075135;28;20204;-62
2021/08/24 03:32:51;;;;;;;8.83;7.40;;;;;;;12.35;100.00;98830.81;5075146;28;20208;-63
2021/08/24 03:35:19;;;;;;;7.83;7.03;;;;;;;12.32;100.00;98830.97;5074856;28;20704;-62
2021/08/24 03:37:45;;;;;;;8.53;7.53;;;;;;;12.23;100.00;98828.94;5074647;28;20575;-62
2021/08/24 03:40:15;;;;;;;8.30;6.90;;;;;;;12.16;100.00;98835.59;5074909;28;20223;-62
2021/08/24 03:42:43;;;;;;;8.13;7.33;;;;;;;12.09;100.00;98835.13;5074904;28;20604;-62
2021/08/24 03:45:10;;;;;;;9.70;7.70;;;;;;;12.15;100.00;98834.72;5073188;28;20556;-62
2021/08/24 03:47:37;;;;;;;9.57;7.63;;;;;;;12.18;100.00;98837.16;5074698;28;20238;-62
2021/08/24 03:50:04;;;;;;;8.90;7.83;;;;;;;12.18;100.00;98838.97;5074756;28;20211;-63
2021/08/24 03:52:30;;;;;;;10.27;8.77;;;;;;;12.17;100.00;98837.28;5074260;28;20679;-62
2021/08/24 03:54:57;;;;;;;10.43;8.20;;;;;;;12.11;100.00;98849.13;5074648;28;20597;-62
2021/08/24 03:57:23;;;;;;;10.23;7.90;;;;;;;12.11;100.00;98848.28;5074197;28;20218;-62
2021/08/24 03:59:54;;;;;;;10.57;7.33;;;;;;;12.05;100.00;98851.31;5074559;28;20246;-62
2021/08/24 04:02:20;;;;;;;10.17;9.07;;;;;;;12.03;100.00;98855.84;5074429;28;20213;-62
2021/08/24 04:04:46;;;;;;;9.50;8.47;;;;;;;12.05;100.00;98857.44;5074069;28;20217;-62
2021/08/24 04:07:13;;;;;;;9.83;8.83;;;;;;;12.07;100.00;98857.38;5073494;28;20215;-62
2021/08/24 04:09:39;;;;;;;11.40;8.73;;;;;;;12.03;100.00;98854.06;5074329;28;20207;-62
2021/08/24 04:12:07;;;;;;;10.23;9.03;;;;;;;12.00;100.00;98858.72;5072507;28;20239;-63
2021/08/24 04:14:33;;;;;;;12.00;8.70;;;;;;;11.93;100.00;98860.06;5074121;28;20221;-62
2021/08/24 04:17:01;;;;;;;10.87;9.20;;;;;;;11.89;100.00;98866.47;5073839;28;20676;-62
2021/08/24 04:19:28;;;;;;;10.97;9.13;;;;;;;11.87;100.00;98863.09;5074086;28;20609;-63
2021/08/24 04:21:54;;;;;;;11.77;9.57;;;;;;;11.91;100.00;98859.28;5074065;28;20204;-62
2021/08/24 04:24:21;;;;;;;11.37;9.67;;;;;;;11.90;100.00;98860.22;5073981;28;20218;-63
2021/08/24 04:26:47;;;;;;;11.87;10.10;;;;;;;11.90;100.00;98865.53;5073879;28;20212;-63
2021/08/24 04:29:14;;;;;;;11.73;10.00;;;;;;;11.94;100.00;98861.75;5073840;28;20215;-63
2021/08/24 04:31:41;;;;;;;13.13;9.47;;;;;;;11.91;100.00;98859.28;5073831;28;20215;-63
2021/08/24 04:34:09;;;;;;;10.73;9.63;;;;;;;11.85;100.00;98862.31;5073770;28;20210;-63
2021/08/24 04:36:35;;;;;;;10.77;9.63;;;;;;;11.90;100.00;98865.53;5072078;28;20207;-63
2021/08/24 04:39:02;;;;;;;11.97;10.63;;;;;;;11.90;100.00;98870.81;5073466;28;20700;-62
2021/08/24 04:41:31;;;;;;;12.97;10.80;;;;;;;11.91;100.00;98865.44;5073473;28;20210;-62
2021/08/24 04:43:57;;;;;;;13.67;10.17;;;;;;;11.91;100.00;98867.22;5073372;28;20218;-62
2021/08/24 04:46:24;;;;;;;11.47;9.87;;;;;;;11.92;100.00;98869.78;5073268;28;20701;-62
2021/08/24 04:48:50;;;;;;;12.00;10.73;;;;;;;12.05;100.00;98875.16;5073714;28;20206;-62
2021/08/24 04:51:18;;;;;;;13.13;11.67;;;;;;;12.14;100.00;98871.91;5073598;28;20211;-62
2021/08/24 04:53:44;;;;;;;13.57;11.50;;;;;;;12.13;100.00;98872.88;5073305;28;20211;-62
2021/08/24 04:56:11;;;;;;;14.07;11.80;;;;;;;12.14;100.00;98870.13;5073166;28;20214;-62
2021/08/24 04:58:37;;;;;;;13.73;11.17;;;;;;;12.18;100.00;98876.09;5072987;28;20700;-63
2021/08/24 05:01:04;;;;;;;13.83;10.70;;;;;;;12.16;100.00;98878.81;5073388;28;20575;-63
2021/08/24 05:03:31;;;;;;;12.20;10.50;;;;;;;12.15;100.00;98873.63;5071400;28;20207;-62
2021/08/24 05:05:57;;;;;;;12.27;10.97;;;;;;;12.13;100.00;98872.88;5073048;28;20214;-62
2021/08/24 05:08:27;;;;;;;12.37;11.00;;;;;;;12.26;100.00;98879.94;5073303;28;20215;-62
2021/08/24 05:10:53;;;;;;;13.27;11.07;;;;;;;12.28;100.00;98887.81;5073070;28;20223;-62
2021/08/24 05:13:20;;;;;;;14.67;11.43;;;;;;;12.32;100.00;98884.00;5073183;28;20256;-62
2021/08/24 05:15:46;;;;;;;14.27;12.03;;;;;;;12.38;100.00;98883.59;5072968;28;20667;-62
2021/08/24 05:18:13;;;;;;;12.93;10.90;;;;;;;12.45;100.00;98875.16;5073035;28;20211;-62
2021/08/24 05:20:39;;;;;;;15.17;11.87;;;;;;;12.55;100.00;98878.06;5073104;28;20222;-62
2021/08/24 05:23:06;;;;;;;12.10;10.83;;;;;;;12.56;100.00;98887.72;5073132;28;20207;-63
2021/08/24 05:25:34;;;;;;;12.37;10.90;;;;;;;12.60;100.00;98889.22;5073063;28;20205;-62
2021/08/24 05:28:02;;;;;;;12.43;11.13;;;;;;;12.65;100.00;98887.13;5072160;28;20209;-62
2021/08/24 05:30:28;;;;;;;13.33;11.93;;;;;;;12.81;100.00;98886.00;5071958;28;20234;-63
2021/08/24 05:32:55;;;;;;;13.83;12.30;;;;;;;13.01;100.00;98887.38;5072400;28;20211;-62
2021/08/24 05:35:23;;;;;;;14.83;12.60;;;;;;;13.19;100.00;98892.28;5072690;28;20231;-62
2021/08/24 05:37:50;;;;;;;13.47;12.00;;;;;;;13.33;100.00;98886.88;5072740;28;20236;-63
2021/08/24 05:40:17;;;;;;;13.27;11.23;;;;;;;13.39;100.00;98886.47;5072820;28;20234;-62
2021/08/24 05:42:45;;;;;;;13.97;12.00;;;;;;;13.47;100.00;98894.78;5072676;28;20216;-62
2021/08/24 05:45:12;;;;;;;11.93;10.67;;;;;;;13.57;100.00;98887.84;5072856;28;20215;-63
2021/08/24 05:47:39;;;;;;;11.80;10.63;;;;;;;13.63;100.00;98899.88;5072545;28;20214;-62
2021/08/24 05:50:07;;;;;;;12.17;10.37;;;;;;;13.65;100.00;98887.31;5072970;28;20211;-62
2021/08/24 05:52:34;;;;;;;11.57;9.77;;;;;;;13.68;100.00;98897.75;5072936;28;20207;-63
2021/08/24 05:55:00;;;;;;;10.57;9.27;;;;;;;13.71;100.00;98897.53;5070905;28;20287;-63
2021/08/24 05:57:27;;;;;;;10.40;9.30;;;;;;;13.76;100.00;98901.53;5072395;28;20216;-63
2021/08/24 05:59:55;;;;;;;10.97;9.70;;;;;;;13.83;100.00;98896.66;5072639;28;20234;-63
2021/08/24 06:02:21;;;;;;;9.70;8.70;;;;;;;13.89;100.00;98896.25;5072550;28;20223;-63
2021/08/24 06:04:48;;;;;;;10.23;8.87;;;;;;;13.92;100.00;98903.97;5072682;28;20219;-63
2021/08/24 06:07:14;;;;;;;9.17;8.27;;;;;;;13.99;100.00;98899.97;5072499;28;20292;-63
2021/08/24 06:09:41;;;;;;;8.93;8.03;;;;;;;13.94;100.00;98894.13;5072627;28;20213;-63
2021/08/24 06:12:08;;;;;;;9.10;7.63;;;;;;;13.88;100.00;98900.69;5072479;28;20211;-63
2021/08/24 06:14:34;;;;;;;8.67;7.77;;;;;;;13.95;100.00;98906.44;5072294;28;20206;-63
2021/08/24 06:17:03;;;;;;;9.07;7.57;;;;;;;13.93;100.00;98893.25;5072341;28;20217;-63
2021/08/24 06:19:31;;;;;;;9.20;7.93;;;;;;;14.01;100.00;98892.72;5072541;28;20234;-63
2021/08/24 06:22:00;;;;;;;8.90;7.93;;;;;;;14.03;100.00;98898.75;5070951;28;20204;-63
2021/08/24 06:24:26;;;;;;;9.10;8.03;;;;;;;14.13;100.00;98894.50;5072676;28;20211;-63
2021/08/24 06:26:53;;;;;;;8.63;7.73;;;;;;;14.15;100.00;98889.91;5072256;28;20224;-63
2021/08/24 06:29:19;;;;;;;8.10;7.30;;;;;;;14.29;100.00;98895.97;5072862;28;20219;-62
2021/08/24 06:31:50;;;;;;;8.33;7.00;;;;;;;14.21;100.00;98900.16;5076292;28;20212;-62
2021/08/24 06:34:19;;;;;;;7.57;6.27;;;;;;;14.21;100.00;98902.81;5076045;28;20651;-63
2021/08/24 06:36:46;;;;;;;6.63;5.93;;;;;;;14.20;100.00;98895.78;5076074;28;20209;-63
2021/08/24 06:39:13;;;;;;;7.03;6.33;;;;;;;14.25;100.00;98896.31;5075819;28;20232;-63
2021/08/24 06:41:39;;;;;;;6.33;5.70;;;;;;;14.23;100.00;98896.41;5075894;28;20250;-63
2021/08/24 06:44:08;;;;;;;7.07;5.87;;;;;;;14.29;100.00;98895.16;5075658;28;20556;-63
2021/08/24 06:46:34;;;;;;;8.80;5.97;;;;;;;14.40;100.00;98903.19;5073850;28;20631;-62
2021/08/24 06:49:01;;;;;;;6.47;5.60;;;;;;;14.36;100.00;98909.69;5075886;28;20224;-62
2021/08/24 06:51:29;;;;;;;6.37;5.60;;;;;;;14.42;100.00;98902.09;5075798;28;20209;-62
2021/08/24 06:53:56;;;;;;;8.87;6.03;;;;;;;14.53;100.00;98911.97;5075608;28;20216;-62
2021/08/24 06:56:22;;;;;;;8.00;6.10;;;;;;;14.51;100.00;98905.91;5075504;28;20212;-62
2021/08/24 06:58:49;;;;;;;5.97;5.27;;;;;;;14.65;100.00;98908.41;5075479;28;20210;-62
2021/08/24 07:01:16;;;;;;;6.80;5.43;;;;;;;14.77;100.00;98905.72;5075383;28;20217;-62
2021/08/24 07:03:43;;;;;;;8.20;5.40;;;;;;;14.82;100.00;98913.34;5075449;28;20209;-62
2021/08/24 07:06:10;;;;;;;7.57;6.10;;;;;;;14.86;100.00;98906.84;5075231;28;20212;-62
2021/08/24 07:08:37;;;;;;;6.50;5.40;;;;;;;14.88;100.00;98912.88;5068934;28;20210;-62
2021/08/24 07:11:04;;;;;;;5.97;5.37;;;;;;;14.78;100.00;98920.69;5073900;28;20217;-62
2021/08/24 07:13:31;;;;;;;6.57;5.27;;;;;;;14.73;100.00;98922.03;5070568;28;20224;-62
2021/08/24 07:15:58;;;;;;;6.60;5.10;;;;;;;14.73;100.00;98922.03;5073745;28;20210;-62
2021/08/24 07:18:24;;;;;;;5.83;5.23;;;;;;;14.74;100.00;98923.72;5073976;28;20218;-62
2021/08/24 07:20:53;;;;;;;5.80;5.20;;;;;;;14.82;100.00;98916.00;5073180;28;20252;-62
2021/08/24 07:23:19;;;;;;;6.30;5.70;;;;;;;14.94;100.00;98915.09;5069377;28;20209;-62
2021/08/24 07:25:48;;;;;;;8.63;5.60;;;;;;;14.98;100.00;98921.91;5073631;28;20888;-62
2021/08/24 07:28:15;;;;;;;6.00;5.17;;;;;;;14.97;100.00;98920.22;5072870;28;20210;-62
2021/08/24 07:30:44;;;;;;;6.77;6.07;;;;;;;15.01;100.00;98916.34;5073432;28;20220;-62
2021/08/24 07:33:11;;;;;;;7.70;5.70;;;;;;;15.11;100.00;98912.03;5074627;28;20225;-62
2021/08/24 07:35:38;;;;;;;5.90;5.30;;;;;;;15.18;100.00;98913.25;5074647;28;20248;-62
2021/08/24 07:38:04;;;;;;;6.13;5.53;;;;;;;15.21;100.00;98918.38;5074448;28;20210;-62
2021/08/24 07:40:31;;;;;;;6.03;5.30;;;;;;;15.28;100.00;98908.94;5072451;28;20236;-62
2021/08/24 07:42:59;;;;;;;9.00;5.53;;;;;;;15.49;100.00;98904.66;5073948;28;20216;-62
2021/08/24 07:45:27;;;;;;;6.20;5.60;;;;;;;15.71;100.00;98902.06;5074515;28;20208;-62
2021/08/24 07:47:53;;;;;;;6.23;5.50;;;;;;;15.92;100.00;98906.56;5073992;28;20682;-62
2021/08/24 07:50:20;;;;;;;6.17;5.57;;;;;;;16.25;100.00;98899.41;5074322;28;20232;-62
2021/08/24 07:52:49;;;;;;;7.27;4.90;;;;;;;16.43;100.00;98897.97;5074364;28;20210;-62
2021/08/24 07:55:15;;;;;;;5.07;4.57;;;;;;;16.70;100.00;98905.56;5074279;28;20206;-62
2021/08/24 07:57:42;;;;;;;5.00;4.50;;;;;;;16.80;100.00;98909.16;5074085;28;20213;-62
2021/08/24 08:00:11;;;;;;;5.67;4.70;;;;;;;16.81;100.00;98909.03;5073817;28;20611;-62
2021/08/24 08:02:37;;;;;;;5.90;5.03;;;;;;;16.77;100.00;98910.25;5074067;28;20220;-62
2021/08/24 08:05:04;;;;;;;5.03;4.53;;;;;;;16.92;100.00;98913.47;5072640;28;20215;-62
2021/08/24 08:07:31;;;;;;;6.40;4.13;;;;;;;16.96;96.85;98910.41;5074328;28;20230;-62
2021/08/24 08:09:57;;;;;;;6.73;4.70;;;;;;;17.11;98.95;98917.19;5074169;28;20220;-62
2021/08/24 08:12:24;;;;;;;5.17;3.93;;;;;;;17.32;97.26;98915.38;5074099;28;20225;-62
2021/08/24 08:14:50;;;;;;;5.10;3.70;;;;;;;17.42;94.17;98921.69;5074053;28;20240;-62
2021/08/24 08:17:18;;;;;;;4.87;3.97;;;;;;;17.44;92.96;98921.56;5073731;28;20207;-62
2021/08/24 08:19:44;;;;;;;5.83;3.97;;;;;;;17.35;94.94;98920.47;5073617;28;20235;-62
2021/08/24 08:22:12;;;;;;;3.60;3.30;;;;;;;17.43;93.85;98918.03;5073597;28;20218;-62
2021/08/24 08:24:39;;;;;;;4.67;3.30;;;;;;;17.41;92.77;98920.00;5073491;28;20219;-62
2021/08/24 08:27:06;;;;;;;3.30;2.90;;;;;;;17.37;90.56;98926.56;5073556;28;20578;-61
2021/08/24 08:29:32;;;;;;;4.70;3.37;;;;;;;17.38;92.30;98925.56;5073779;28;20211;-62
2021/08/24 08:32:05;;;;;;;3.37;3.07;;;;;;;17.54;91.96;98919.78;5072142;28;20224;-61
2021/08/24 08:34:32;;;;;;;3.67;3.00;;;;;;;17.50;90.08;98927.22;5073691;28;20243;-62
2021/08/24 08:36:59;;;;;;;3.60;3.30;;;;;;;17.56;93.36;98921.34;5073568;28;20211;-62
2021/08/24 08:39:26;;;;;;;4.33;3.57;;;;;;;17.82;95.30;98920.00;5073566;28;20218;-62
2021/08/24 08:42:09;;;;;;;3.50;3.20;;;;;;;18.03;95.66;98922.59;5073676;28;20269;-62
2021/08/24 08:44:45;;;;;;;3.77;3.37;;;;;;;18.08;90.41;98926.59;5073359;28;20215;-62
2021/08/24 08:47:23;;;;;;;4.10;3.30;;;;;;;17.85;87.34;98924.22;5073365;28;20241;-62
2021/08/24 08:49:56;;;;;;;3.80;3.40;;;;;;;17.61;88.86;98927.16;5073530;28;20215;-62
2021/08/24 08:52:31;;;;;;;3.80;3.50;;;;;;;17.44;91.90;98927.72;5072899;28;20661;-62
2021/08/24 08:55:01;;;;;;;4.93;3.80;;;;;;;17.46;91.13;98919.59;5073446;28;20225;-62
2021/08/24 08:57:33;;;;;;;4.13;3.50;;;;;;;17.40;93.76;98922.78;5071792;28;20208;-62
2021/08/24 09:00:07;;;;;;;3.83;3.43;;;;;;;17.41;95.33;98914.66;5073074;28;20239;-64
2021/08/24 09:02:42;;;;;;;4.60;3.50;;;;;;;17.70;97.27;98921.03;5072983;28;20207;-62
2021/08/24 09:05:10;;;;;;;3.87;3.47;;;;;;;17.94;98.22;98913.59;5073106;28;20238;-62
2021/08/24 09:07:41;;;;;;;4.10;3.70;;;;;;;17.90;91.92;98919.31;5072975;28;20688;-62
2021/08/24 09:10:12;;;;;;;5.77;3.50;;;;;;;17.78;91.79;98912.34;5073287;28;20215;-62
2021/08/24 09:12:39;;;;;;;3.77;3.30;;;;;;;17.89;94.27;98915.81;5073213;28;20226;-62
2021/08/24 09:15:12;;;;;;;4.20;3.40;;;;;;;18.05;90.41;98910.78;5073185;28;20214;-62
2021/08/24 09:17:41;;;;;;;5.03;3.40;;;;;;;18.12;89.29;98912.00;5072562;28;20571;-62
2021/08/24 09:20:20;;;;;;;4.53;3.70;;;;;;;18.02;91.94;98903.06;5071807;28;20246;-62
2021/08/24 09:22:47;;;;;;;4.00;3.60;;;;;;;18.28;94.15;98909.63;5070922;28;20218;-61
2021/08/24 09:25:16;;;;;;;4.20;3.47;;;;;;;18.70;91.60;98899.63;5069879;28;20218;-61
2021/08/24 09:27:54;;;;;;;4.77;3.50;;;;;;;19.09;91.12;98898.72;5070836;28;20207;-62
2021/08/24 09:30:21;;;;;;;4.00;3.60;;;;;;;19.30;89.31;98897.63;5071486;28;20220;-62
2021/08/24 09:32:48;;;;;;;4.10;3.20;;;;;;;19.33;90.02;98902.69;5071417;28;20508;-62
2021/08/24 09:35:35;;;;;;;3.00;2.80;;;;;;;19.40;88.33;98902.97;5071553;28;20708;-62
2021/08/24 09:38:12;;;;;;;3.80;3.03;;;;;;;19.47;89.06;98901.41;5071561;28;20211;-63
2021/08/24 09:40:44;;;;;;;3.90;3.50;;;;;;;19.43;89.37;98906.22;5071418;28;20242;-63
2021/08/24 09:43:30;;;;;;;3.93;3.27;;;;;;;19.40;90.04;98905.66;5071248;28;20211;-63
2021/08/24 09:46:05;;;;;;;3.90;3.20;;;;;;;19.27;87.85;98907.78;5071229;28;20215;-62
2021/08/24 09:48:48;;;;;;;3.60;3.30;;;;;;;19.06;88.46;98917.75;5071207;28;20211;-62
2021/08/24 09:51:30;;;;;;;3.87;3.43;;;;;;;18.90;89.43;98907.56;5069981;28;20587;-62
2021/08/24 09:53:58;;;;;;;3.40;3.10;;;;;;;18.80;90.46;98913.91;5071616;28;20207;-63
2021/08/24 09:56:28;;;;;;;4.10;3.80;;;;;;;18.70;91.89;98913.03;5072786;28;20203;-63
2021/08/24 09:58:55;;;;;;;3.63;3.33;;;;;;;18.56;91.79;98911.59;5072734;28;20577;-62
2021/08/24 10:01:22;;;;;;;3.70;3.20;;;;;;;18.47;90.97;98923.13;5072235;28;20730;-63
2021/08/24 10:04:05;;;;;;;3.33;3.03;;;;;;;18.35;91.70;98921.53;5072442;28;20215;-63
2021/08/24 10:06:35;;;;;;;3.33;3.03;;;;;;;18.30;91.54;98917.53;5076526;28;20208;-62
2021/08/24 10:09:16;;;;;;;4.10;3.63;;;;;;;18.21;90.21;98916.50;5076526;28;20207;-62
2021/08/24 10:11:42;;;;;;;3.87;3.30;;;;;;;18.21;92.97;98921.88;5076295;28;20268;-62
2021/08/24 10:14:13;;;;;;;4.10;3.70;;;;;;;18.19;94.84;98922.97;5076456;28;20204;-62
2021/08/24 10:16:43;;;;;;;4.73;4.30;;;;;;;18.17;95.52;98920.44;5074490;28;20214;-62
2021/08/24 10:19:17;;;;;;;4.47;3.83;;;;;;;18.15;95.26;98917.06;5076344;28;20216;-62
2021/08/24 10:21:55;;;;;;;3.67;3.27;;;;;;;18.21;94.63;98919.19;5075979;28;20231;-63
2021/08/24 10:24:28;;;;;;;4.20;3.80;;;;;;;18.27;93.63;98926.69;5076040;28;20208;-62
2021/08/24 10:26:58;;;;;;;4.40;4.00;;;;;;;18.29;92.90;98918.53;5076102;28;20207;-62
2021/08/24 10:29:28;;;;;;;4.67;4.13;;;;;;;18.31;93.16;98921.94;5076093;28;20210;-63
2021/08/24 10:32:02;;;;;;;4.53;4.13;;;;;;;18.29;90.37;98923.88;5076283;28;20219;-63
2021/08/24 10:34:33;;;;;;;4.37;3.97;;;;;;;18.36;91.46;98925.88;5075277;28;20235;-62
2021/08/24 10:37:40;;;;;;;4.07;3.67;;;;;;;18.59;91.32;98932.75;5075056;28;20684;-62
2021/08/24 10:40:25;;;;;;;4.10;3.70;;;;;;;18.84;89.92;98921.53;5012865;28;20221;-63
2021/08/24 10:43:19;;;;;;;3.97;3.47;;;;;;;19.03;88.98;98921.53;5070755;28;20200;-63
2021/08/24 10:46:02;;;;;;;4.60;4.20;;;;;;;19.27;88.36;98919.34;5075331;28;20214;-62
2021/08/24 10:48:32;;;;;;;4.17;3.80;;;;;;;19.42;87.59;98920.63;5075283;28;20207;-62
2021/08/24 10:51:05;;;;;;;4.40;3.87;;;;;;;19.46;85.76;98924.72;5074906;28;20214;-63
2021/08/24 10:53:43;;;;;;;4.00;3.60;;;;;;;19.49;85.96;98924.41;5075187;28;20207;-62
2021/08/24 10:56:14;;;;;;;3.87;3.57;;;;;;;19.61;86.23;98922.41;5074920;28;20559;-63
2021/08/24 10:58:47;;;;;;;5.03;4.13;;;;;;;19.78;84.51;98925.22;5074803;28;20306;-63
2021/08/24 11:01:19;;;;;;;3.93;3.63;;;;;;;19.69;84.65;98925.25;5074999;28;20626;-62
2021/08/24 11:04:30;;;;;;;3.70;3.40;;;;;;;19.63;86.35;98925.81;5075056;28;20641;-62
2021/08/24 11:07:10;;;;;;;3.70;3.40;;;;;;;19.59;87.59;98925.28;5075028;28;20208;-63
2021/08/24 11:09:49;;;;;;;4.10;3.70;;;;;;;19.61;87.00;98928.63;5073143;28;20208;-62
2021/08/24 11:12:28;;;;;;;4.10;3.60;;;;;;;19.73;87.34;98916.78;5074892;28;20569;-63
2021/08/24 11:15:10;;;;;;;3.83;3.30;;;;;;;19.70;86.96;98930.44;5074491;28;20207;-63
2021/08/24 11:17:45;;;;;;;4.33;3.57;;;;;;;19.68;87.90;98928.94;5074783;28;20203;-63
2021/08/24 11:20:21;;;;;;;4.30;3.90;;;;;;;19.70;87.53;98930.44;5074352;28;20582;-63
2021/08/24 11:23:05;;;;;;;4.10;3.30;;;;;;;19.54;84.89;98932.88;5074390;28;20216;-62
2021/08/24 11:25:40;;;;;;;4.50;3.80;;;;;;;19.35;85.96;98926.69;5074639;28;20257;-63
2021/08/24 11:28:15;;;;;;;4.20;3.80;;;;;;;19.04;85.38;98927.75;5074477;28;20229;-62
2021/08/24 11:30:44;;;;;;;4.67;3.87;;;;;;;18.77;88.15;98924.91;5074548;28;20207;-63
2021/08/24 11:33:15;;;;;;;4.00;3.60;;;;;;;18.68;90.40;98933.75;5074494;28;20226;-63
2021/08/24 11:35:53;;;;;;;4.03;3.63;;;;;;;18.49;87.04;98934.56;5072409;28;20231;-62
2021/08/24 11:38:23;;;;;;;4.77;3.87;;;;;;;18.34;88.09;98937.75;5074049;28;20226;-63